createdAt,value
2018-04-23T00:01:31.181Z,99.90
2018-04-23T00:03:59.364Z,99.90
2018-04-23T00:06:27.545Z,99.90
2018-04-23T00:08:55.700Z,99.90
2018-04-23T00:11:23.882Z,99.90
2018-04-23T00:13:52.048Z,99.90
2018-04-23T00:16:20.224Z,99.90
2018-04-23T00:18:48.385Z,99.90
2018-04-23T00:21:16.560Z,99.90
2018-04-23T00:23:44.717Z,99.90
2018-04-23T00:26:12.899Z,99.90
2018-04-23T00:28:41.048Z,99.90
2018-04-23T00:31:09.249Z,99.90
2018-04-23T00:33:37.404Z,99.90
2018-04-23T00:36:05.590Z,99.90
2018-04-23T00:38:33.748Z,99.90
2018-04-23T00:41:01.928Z,99.90
2018-04-23T00:43:30.076Z,99.90
2018-04-23T00:45:59.016Z,99.90
2018-04-23T00:48:27.175Z,99.90
2018-04-23T00:50:55.357Z,99.90
2018-04-23T00:53:35.247Z,99.90
2018-04-23T00:56:03.431Z,99.90
2018-04-23T00:58:31.596Z,99.90
2018-04-23T01:00:59.775Z,99.90
2018-04-23T01:03:27.928Z,99.90
2018-04-23T01:05:56.112Z,99.90
2018-04-23T01:08:24.273Z,99.90
2018-04-23T01:10:52.457Z,99.90
2018-04-23T01:13:20.617Z,99.90
2018-04-23T01:15:48.796Z,99.90
2018-04-23T01:18:16.948Z,99.90
2018-04-23T01:20:45.126Z,99.90
2018-04-23T01:23:13.276Z,99.90
2018-04-23T01:25:41.677Z,99.90
2018-04-23T01:28:09.840Z,99.90
2018-04-23T01:30:37.990Z,99.90
2018-04-23T01:33:06.179Z,99.90
2018-04-23T01:35:34.332Z,99.90
2018-04-23T01:38:03.276Z,99.90
2018-04-23T01:40:31.428Z,99.90
2018-04-23T01:42:59.616Z,99.90
2018-04-23T01:45:27.767Z,99.90
2018-04-23T01:47:55.948Z,99.90
2018-04-23T01:50:24.106Z,99.90
2018-04-23T01:52:52.285Z,99.90
2018-04-23T01:55:20.439Z,99.90
2018-04-23T01:57:49.386Z,99.90
2018-04-23T02:00:17.581Z,99.90
2018-04-23T02:02:45.765Z,99.90
2018-04-23T02:05:13.922Z,99.90
2018-04-23T02:07:42.104Z,99.90
2018-04-23T02:10:10.256Z,99.90
2018-04-23T02:12:38.437Z,99.90
2018-04-23T02:15:06.600Z,99.90
2018-04-23T02:17:34.784Z,99.90
2018-04-23T02:20:02.945Z,99.90
2018-04-23T02:22:31.124Z,99.90
2018-04-23T02:24:59.284Z,99.90
2018-04-23T02:27:27.467Z,99.90
2018-04-23T02:29:55.624Z,99.90
2018-04-23T02:32:23.806Z,99.90
2018-04-23T02:34:51.961Z,99.90
2018-04-23T02:37:20.140Z,99.90
2018-04-23T02:39:48.318Z,99.90
2018-04-23T02:42:16.495Z,99.90
2018-04-23T02:44:44.646Z,99.90
2018-04-23T02:47:12.824Z,99.90
2018-04-23T02:49:40.977Z,99.90
2018-04-23T02:52:09.153Z,99.90
2018-04-23T02:54:38.068Z,99.90
2018-04-23T02:57:06.254Z,99.90
2018-04-23T02:59:34.413Z,99.90
2018-04-23T03:02:02.592Z,99.90
2018-04-23T03:04:30.744Z,99.90
2018-04-23T03:06:59.693Z,99.90
2018-04-23T03:09:27.841Z,99.90
2018-04-23T03:11:56.025Z,99.90
2018-04-23T03:14:24.184Z,99.90
2018-04-23T03:16:52.366Z,99.90
2018-04-23T03:19:20.521Z,99.90
2018-04-23T03:21:48.701Z,99.90
2018-04-23T03:24:16.851Z,99.90
2018-04-23T03:26:45.795Z,99.90
2018-04-23T03:29:13.965Z,99.90
2018-04-23T03:31:42.120Z,99.90
2018-04-23T03:34:10.297Z,99.90
2018-04-23T03:36:38.455Z,99.90
2018-04-23T03:39:06.637Z,99.90
2018-04-23T03:41:34.789Z,99.90
2018-04-23T03:44:02.972Z,99.90
2018-04-23T03:46:31.120Z,99.90
2018-04-23T03:48:59.300Z,99.90
2018-04-23T03:51:27.451Z,99.90
2018-04-23T03:53:55.641Z,99.90
2018-04-23T03:56:23.793Z,99.90
2018-04-23T03:58:51.978Z,99.90
2018-04-23T04:01:20.128Z,99.90
2018-04-23T04:03:48.304Z,99.90
2018-04-23T04:06:16.467Z,99.90
2018-04-23T04:08:44.649Z,99.90
2018-04-23T04:11:12.793Z,99.90
2018-04-23T04:13:52.629Z,99.90
2018-04-23T04:16:32.370Z,99.90
2018-04-23T04:19:00.546Z,99.90
2018-04-23T04:21:29.461Z,99.90
2018-04-23T04:23:57.639Z,99.90
2018-04-23T04:26:26.649Z,99.90
2018-04-23T04:28:54.821Z,99.90
2018-04-23T04:31:22.973Z,99.90
2018-04-23T04:33:51.158Z,99.90
2018-04-23T04:36:19.312Z,99.90
2018-04-23T04:38:47.492Z,99.90
2018-04-23T04:41:15.654Z,99.90
2018-04-23T04:43:43.838Z,99.90
2018-04-23T04:46:11.993Z,99.90
2018-04-23T04:48:40.177Z,99.90
2018-04-23T04:51:08.329Z,99.90
2018-04-23T04:53:36.514Z,99.90
2018-04-23T04:56:04.668Z,99.90
2018-04-23T04:58:32.848Z,99.90
2018-04-23T05:01:01.006Z,99.90
2018-04-23T05:03:29.187Z,99.90
2018-04-23T05:05:57.400Z,99.90
2018-04-23T05:08:25.543Z,99.90
2018-04-23T05:10:53.701Z,99.90
2018-04-23T05:13:21.875Z,99.90
2018-04-23T05:15:50.028Z,99.90
2018-04-23T05:18:18.209Z,99.90
2018-04-23T05:20:46.368Z,99.90
2018-04-23T05:23:14.548Z,99.90
2018-04-23T05:25:42.701Z,99.90
2018-04-23T05:28:10.880Z,99.90
2018-04-23T05:30:39.030Z,99.90
2018-04-23T05:33:07.188Z,99.90
2018-04-23T05:35:35.370Z,99.90
2018-04-23T05:38:04.288Z,99.90
2018-04-23T05:40:32.477Z,99.90
2018-04-23T05:43:00.636Z,99.90
2018-04-23T05:45:28.813Z,99.90
2018-04-23T05:47:56.964Z,99.90
2018-04-23T05:50:25.140Z,99.90
2018-04-23T05:52:53.300Z,99.90
2018-04-23T05:55:21.474Z,99.90
2018-04-23T05:57:50.396Z,99.90
2018-04-23T06:00:18.624Z,99.90
2018-04-23T06:02:46.778Z,99.90
2018-04-23T06:05:14.991Z,99.90
2018-04-23T06:07:43.152Z,99.90
2018-04-23T06:10:11.331Z,99.90
2018-04-23T06:12:39.484Z,99.90
2018-04-23T06:15:07.668Z,99.90
2018-04-23T06:17:35.820Z,99.90
2018-04-23T06:20:03.992Z,99.90
2018-04-23T06:22:32.157Z,99.90
2018-04-23T06:25:00.339Z,99.90
2018-04-23T06:27:28.487Z,99.90
2018-04-23T06:29:56.665Z,99.90
2018-04-23T06:32:24.816Z,99.90
2018-04-23T06:34:52.992Z,99.90
2018-04-23T06:37:21.151Z,99.90
2018-04-23T06:39:49.333Z,99.90
2018-04-23T06:42:17.485Z,99.90
2018-04-23T06:44:45.670Z,99.90
2018-04-23T06:47:13.832Z,99.90
2018-04-23T06:49:42.017Z,99.90
2018-04-23T06:52:10.172Z,99.90
2018-04-23T06:54:39.237Z,99.90
2018-04-23T06:57:07.396Z,99.90
2018-04-23T06:59:35.577Z,99.90
2018-04-23T07:02:03.790Z,99.90
2018-04-23T07:04:32.002Z,99.90
2018-04-23T07:07:00.160Z,99.90
2018-04-23T07:09:28.366Z,99.90
2018-04-23T07:11:56.529Z,99.90
2018-04-23T07:14:24.723Z,99.90
2018-04-23T07:16:52.908Z,99.90
2018-04-23T07:19:21.093Z,99.90
2018-04-23T07:21:49.326Z,99.90
2018-04-23T07:24:17.612Z,99.90
2018-04-23T07:26:45.794Z,99.90
2018-04-23T07:29:14.034Z,99.90
2018-04-23T07:31:42.209Z,99.90
2018-04-23T07:34:10.471Z,99.90
2018-04-23T07:36:39.491Z,99.90
2018-04-23T07:39:07.659Z,99.90
2018-04-23T07:41:35.843Z,99.90
2018-04-23T07:44:04.004Z,99.90
2018-04-23T07:46:32.214Z,99.90
2018-04-23T07:49:00.397Z,99.90
2018-04-23T07:51:28.640Z,99.90
2018-04-23T07:53:56.840Z,99.90
2018-04-23T07:56:25.021Z,99.90
2018-04-23T07:58:53.189Z,99.90
2018-04-23T08:01:21.464Z,99.90
2018-04-23T08:03:49.693Z,99.90
2018-04-23T08:06:17.877Z,99.90
2018-04-23T08:08:46.367Z,99.90
2018-04-23T08:11:14.548Z,99.90
2018-04-23T08:13:42.721Z,99.90
2018-04-23T08:16:10.928Z,99.90
2018-04-23T08:18:39.108Z,99.60
2018-04-23T08:21:07.373Z,99.90
2018-04-23T08:23:35.648Z,99.90
2018-04-23T08:26:04.151Z,99.90
2018-04-23T08:28:33.356Z,99.90
2018-04-23T08:31:01.977Z,99.90
2018-04-23T08:33:30.606Z,99.90
2018-04-23T08:35:58.842Z,99.90
2018-04-23T08:38:27.005Z,99.90
2018-04-23T08:40:55.193Z,99.90
2018-04-23T08:43:23.349Z,99.90
2018-04-23T08:45:52.292Z,99.90
2018-04-23T08:48:20.522Z,99.90
2018-04-23T08:50:48.717Z,99.90
2018-04-23T08:53:16.883Z,99.90
2018-04-23T08:55:45.108Z,99.90
2018-04-23T08:58:13.425Z,99.90
2018-04-23T09:00:41.620Z,99.90
2018-04-23T09:03:09.785Z,99.90
2018-04-23T09:05:37.966Z,99.90
2018-04-23T09:08:06.124Z,99.90
2018-04-23T09:10:34.307Z,99.90
2018-04-23T09:13:02.471Z,99.90
2018-04-23T09:15:30.649Z,99.90
2018-04-23T09:17:58.804Z,99.90
2018-04-23T09:20:27.750Z,99.90
2018-04-23T09:22:55.904Z,99.90
2018-04-23T09:25:24.084Z,99.90
2018-04-23T09:27:52.233Z,99.90
2018-04-23T09:30:20.409Z,99.90
2018-04-23T09:32:48.564Z,99.90
2018-04-23T09:35:17.524Z,99.90
2018-04-23T09:37:45.683Z,99.90
2018-04-23T09:40:13.837Z,99.90
2018-04-23T09:42:42.012Z,99.90
2018-04-23T09:45:10.165Z,99.60
2018-04-23T09:47:38.342Z,99.10
2018-04-23T09:50:06.548Z,99.40
2018-04-23T09:52:34.713Z,99.90
2018-04-23T09:55:02.868Z,99.90
2018-04-23T09:57:31.052Z,99.90
2018-04-23T09:59:59.204Z,99.90
2018-04-23T10:02:27.403Z,99.90
2018-04-23T10:04:55.557Z,99.50
2018-04-23T10:07:23.733Z,98.50
2018-04-23T10:09:51.888Z,98.30
2018-04-23T10:12:20.832Z,98.80
2018-04-23T10:14:48.989Z,98.70
2018-04-23T10:17:17.172Z,98.00
2018-04-23T10:19:45.324Z,97.80
2018-04-23T10:22:13.508Z,97.60
2018-04-23T10:24:41.668Z,97.40
2018-04-23T10:27:09.862Z,98.40
2018-04-23T10:29:38.013Z,98.00
2018-04-23T10:32:06.193Z,98.70
2018-04-23T10:34:34.358Z,97.50
2018-04-23T10:37:02.537Z,96.60
2018-04-23T10:39:30.691Z,96.20
2018-04-23T10:41:58.865Z,95.60
2018-04-23T10:44:27.793Z,96.60
2018-04-23T10:46:55.964Z,96.60
2018-04-23T10:49:24.120Z,96.20
2018-04-23T10:51:52.300Z,95.70
2018-04-23T10:54:20.456Z,96.30
2018-04-23T10:56:49.410Z,95.60
2018-04-23T10:59:17.616Z,95.50
2018-04-23T11:01:46.562Z,95.50
2018-04-23T11:04:14.780Z,95.50
2018-04-23T11:06:42.973Z,95.80
2018-04-23T11:09:11.132Z,95.60
2018-04-23T11:11:40.084Z,95.90
2018-04-23T11:14:08.241Z,95.90
2018-04-23T11:16:36.416Z,95.00
2018-04-23T11:19:04.581Z,96.00
2018-04-23T11:21:32.761Z,96.30
2018-04-23T11:24:01.459Z,96.90
2018-04-23T11:26:29.648Z,97.90
2018-04-23T11:28:57.813Z,98.10
2018-04-23T11:31:25.988Z,97.90
2018-04-23T11:33:54.140Z,96.50
2018-04-23T11:36:22.317Z,95.70
2018-04-23T11:38:50.482Z,97.40
2018-04-23T11:41:18.645Z,97.50
2018-04-23T11:43:46.825Z,98.20
2018-04-23T11:46:15.002Z,97.70
2018-04-23T11:48:43.188Z,96.30
2018-04-23T11:51:11.337Z,96.00
2018-04-23T11:53:39.520Z,96.90
2018-04-23T11:56:07.676Z,96.40
2018-04-23T11:58:35.883Z,96.20
2018-04-23T12:01:04.036Z,96.80
2018-04-23T12:03:32.217Z,95.90
2018-04-23T12:06:00.387Z,95.10
2018-04-23T12:08:28.591Z,95.00
2018-04-23T12:10:56.749Z,94.80
2018-04-23T12:13:24.940Z,95.20
2018-04-23T12:15:53.104Z,97.00
2018-04-23T12:18:21.290Z,97.00
2018-04-23T12:20:49.444Z,95.70
2018-04-23T12:23:17.626Z,95.60
2018-04-23T12:25:45.792Z,95.90
2018-04-23T12:28:13.985Z,96.50
2018-04-23T12:30:42.139Z,96.30
2018-04-23T12:33:10.328Z,96.40
2018-04-23T12:35:38.488Z,95.90
2018-04-23T12:38:06.672Z,94.60
2018-04-23T12:40:34.837Z,95.40
2018-04-23T12:43:03.020Z,95.50
2018-04-23T12:45:31.179Z,96.00
2018-04-23T12:47:59.361Z,95.50
2018-04-23T12:50:27.516Z,95.60
2018-04-23T12:52:55.732Z,96.50
2018-04-23T12:55:23.900Z,96.50
2018-04-23T12:57:52.081Z,96.70
2018-04-23T13:00:20.253Z,96.70
2018-04-23T13:02:48.437Z,96.50
2018-04-23T13:05:16.682Z,96.20
2018-04-23T13:07:44.864Z,95.70
2018-04-23T13:10:13.024Z,95.60
2018-04-23T13:12:41.208Z,94.20
2018-04-23T13:15:09.376Z,95.50
2018-04-23T13:17:37.569Z,94.50
2018-04-23T13:20:05.741Z,94.20
2018-04-23T13:22:34.281Z,94.40
2018-04-23T13:25:02.455Z,94.80
2018-04-23T13:27:30.644Z,94.30
2018-04-23T13:29:58.809Z,95.10
2018-04-23T13:32:27.000Z,93.50
2018-04-23T13:34:55.172Z,92.50
2018-04-23T13:37:23.380Z,92.80
2018-04-23T13:39:51.819Z,92.90
2018-04-23T13:42:20.036Z,90.70
2018-04-23T13:44:48.201Z,90.40
2018-04-23T13:47:16.381Z,90.20
2018-04-23T13:49:44.586Z,90.80
2018-04-23T13:52:12.772Z,91.00
2018-04-23T13:54:41.759Z,90.80
2018-04-23T13:57:10.747Z,91.10
2018-04-23T13:59:39.676Z,92.60
2018-04-23T14:02:07.867Z,92.60
2018-04-23T14:04:36.024Z,92.50
2018-04-23T14:07:04.220Z,92.60
2018-04-23T14:09:32.409Z,91.70
2018-04-23T14:12:00.579Z,91.20
2018-04-23T14:14:28.769Z,91.60
2018-04-23T14:16:56.928Z,90.90
2018-04-23T14:19:25.110Z,90.90
2018-04-23T14:21:53.287Z,90.70
2018-04-23T14:24:21.472Z,91.00
2018-04-23T14:26:49.647Z,87.70
2018-04-23T14:29:17.838Z,88.50
2018-04-23T14:31:46.004Z,89.80
2018-04-23T14:34:14.198Z,91.10
2018-04-23T14:36:42.372Z,91.40
2018-04-23T14:39:10.588Z,90.20
2018-04-23T14:41:38.749Z,86.90
2018-04-23T14:44:06.929Z,85.20
2018-04-23T14:46:35.085Z,84.20
2018-04-23T14:49:03.266Z,83.90
2018-04-23T14:51:31.436Z,83.20
2018-04-23T14:53:59.621Z,81.70
2018-04-23T14:56:28.547Z,82.90
2018-04-23T14:58:56.735Z,83.00
2018-04-23T15:01:25.676Z,86.10
2018-04-23T15:03:53.861Z,86.00
2018-04-23T15:06:22.027Z,86.90
2018-04-23T15:08:50.207Z,85.10
2018-04-23T15:11:18.378Z,85.00
2018-04-23T15:13:46.560Z,84.90
2018-04-23T15:16:14.741Z,85.50
2018-04-23T15:18:42.935Z,86.40
2018-04-23T15:21:11.934Z,85.10
2018-04-23T15:23:40.963Z,87.50
2018-04-23T15:26:09.614Z,87.40
2018-04-23T15:28:37.919Z,84.60
2018-04-23T15:31:06.109Z,83.80
2018-04-23T15:33:34.324Z,83.40
2018-04-23T15:36:02.492Z,83.80
2018-04-23T15:38:30.703Z,85.30
2018-04-23T15:40:58.937Z,85.80
2018-04-23T15:43:27.116Z,85.80
2018-04-23T15:45:55.344Z,84.20
2018-04-23T15:48:23.562Z,82.50
2018-04-23T15:50:51.732Z,82.10
2018-04-23T15:53:19.900Z,83.30
2018-04-23T15:55:48.088Z,83.50
2018-04-23T15:58:16.244Z,84.00
2018-04-23T16:00:44.437Z,84.90
2018-04-23T16:03:12.622Z,85.00
2018-04-23T16:05:40.809Z,83.60
2018-04-23T16:08:08.969Z,84.80
2018-04-23T16:10:37.156Z,84.50
2018-04-23T16:13:05.333Z,85.30
2018-04-23T16:15:33.519Z,85.80
2018-04-23T16:18:01.709Z,85.00
2018-04-23T16:20:29.895Z,84.90
2018-04-23T16:22:58.088Z,84.50
2018-04-23T16:25:26.331Z,85.00
2018-04-23T16:27:54.566Z,85.50
2018-04-23T16:30:22.841Z,87.00
2018-04-23T16:32:51.916Z,88.00
2018-04-23T16:35:20.148Z,87.80
2018-04-23T16:37:48.351Z,87.30
2018-04-23T16:40:16.557Z,85.50
2018-04-23T16:42:44.802Z,85.50
2018-04-23T16:45:13.100Z,86.50
2018-04-23T16:47:41.265Z,85.60
2018-04-23T16:50:09.479Z,86.40
2018-04-23T16:52:37.647Z,87.20
2018-04-23T16:55:06.614Z,88.30
2018-04-23T16:57:34.925Z,88.10
2018-04-23T17:00:03.126Z,86.70
2018-04-23T17:02:31.282Z,87.30
2018-04-23T17:04:59.476Z,88.40
2018-04-23T17:07:27.657Z,89.60
2018-04-23T17:09:55.853Z,88.40
2018-04-23T17:12:24.013Z,89.00
2018-04-23T17:14:52.197Z,88.70
2018-04-23T17:17:20.405Z,88.70
2018-04-23T17:19:48.614Z,89.70
2018-04-23T17:22:16.826Z,87.80
2018-04-23T17:24:45.128Z,88.60
2018-04-23T17:27:13.352Z,88.80
2018-04-23T17:29:41.659Z,90.00
2018-04-23T17:32:09.832Z,89.30
2018-04-23T17:34:38.036Z,90.20
2018-04-23T17:37:06.219Z,90.10
2018-04-23T17:39:34.419Z,90.00
2018-04-23T17:42:02.598Z,90.70
2018-04-23T17:44:30.795Z,90.20
2018-04-23T17:46:58.999Z,90.40
2018-04-23T17:49:27.166Z,90.60
2018-04-23T17:51:55.422Z,90.30
2018-04-23T17:54:23.574Z,90.40
2018-04-23T17:56:51.770Z,90.40
2018-04-23T17:59:19.929Z,90.70
2018-04-23T18:01:48.182Z,90.40
2018-04-23T18:04:16.389Z,90.10
2018-04-23T18:06:44.672Z,90.00
2018-04-23T18:09:12.844Z,90.20
2018-04-23T18:11:41.032Z,90.50
2018-04-23T18:14:09.204Z,90.70
2018-04-23T18:16:37.432Z,90.90
2018-04-23T18:19:05.602Z,91.30
2018-04-23T18:21:33.777Z,91.30
2018-04-23T18:24:01.930Z,91.70
2018-04-23T18:26:30.120Z,92.00
2018-04-23T18:28:58.295Z,92.00
2018-04-23T18:31:26.497Z,92.30
2018-04-23T18:33:54.654Z,92.30
2018-04-23T18:36:22.844Z,92.80
2018-04-23T18:38:51.049Z,92.80
2018-04-23T18:41:19.200Z,93.00
2018-04-23T18:43:47.352Z,93.30
2018-04-23T18:46:15.562Z,93.10
2018-04-23T18:48:43.732Z,93.20
2018-04-23T18:51:11.992Z,93.50
2018-04-23T18:53:40.156Z,93.60
2018-04-23T18:56:08.391Z,93.70
2018-04-23T18:58:36.548Z,93.90
2018-04-23T19:01:04.801Z,94.00
2018-04-23T19:03:32.971Z,93.90
2018-04-23T19:06:01.162Z,94.10
2018-04-23T19:08:29.328Z,94.20
2018-04-23T19:10:57.773Z,94.50
2018-04-23T19:13:25.924Z,94.60
2018-04-23T19:15:54.150Z,94.80
2018-04-23T19:18:22.299Z,95.40
2018-04-23T19:20:50.484Z,95.30
2018-04-23T19:23:18.676Z,95.40
2018-04-23T19:25:46.877Z,95.50
2018-04-23T19:28:15.047Z,95.70
2018-04-23T19:30:43.230Z,95.60
2018-04-23T19:33:11.389Z,95.60
2018-04-23T19:35:39.592Z,95.80
2018-04-23T19:38:08.516Z,96.10
2018-04-23T19:40:36.716Z,96.00
2018-04-23T19:43:04.940Z,96.20
2018-04-23T19:45:33.128Z,96.40
2018-04-23T19:48:01.293Z,96.90
2018-04-23T19:50:29.480Z,96.60
2018-04-23T19:52:57.639Z,96.80
2018-04-23T19:55:25.849Z,97.10
2018-04-23T19:57:54.046Z,97.10
2018-04-23T20:00:22.203Z,97.30
2018-04-23T20:02:50.385Z,97.60
2018-04-23T20:05:18.545Z,97.90
2018-04-23T20:07:46.784Z,98.10
2018-04-23T20:10:14.948Z,98.20
2018-04-23T20:12:43.133Z,98.60
2018-04-23T20:15:11.288Z,98.80
2018-04-23T20:17:39.471Z,98.90
2018-04-23T20:20:07.619Z,99.30
2018-04-23T20:22:35.810Z,99.30
2018-04-23T20:25:04.016Z,99.50
2018-04-23T20:27:32.229Z,99.60
2018-04-23T20:30:00.412Z,99.30
2018-04-23T20:32:28.600Z,99.10
2018-04-23T20:34:56.765Z,98.90
2018-04-23T20:37:25.004Z,98.70
2018-04-23T20:39:53.177Z,98.80
2018-04-23T20:42:21.357Z,98.80
2018-04-23T20:44:49.513Z,98.90
2018-04-23T20:47:17.714Z,98.90
2018-04-23T20:49:45.872Z,99.00
2018-04-23T20:52:14.063Z,98.90
2018-04-23T20:54:42.226Z,98.90
2018-04-23T20:57:10.397Z,98.90
2018-04-23T20:59:38.548Z,98.70
2018-04-23T21:02:06.724Z,98.30
2018-04-23T21:04:34.925Z,98.00
2018-04-23T21:07:03.319Z,97.80
2018-04-23T21:09:31.480Z,97.80
2018-04-23T21:11:59.675Z,97.80
2018-04-23T21:14:27.832Z,97.70
2018-04-23T21:16:56.012Z,97.00
2018-04-23T21:19:24.169Z,96.60
2018-04-23T21:21:52.352Z,96.90
2018-04-23T21:24:20.507Z,96.80
2018-04-23T21:26:48.688Z,96.70
2018-04-23T21:29:16.886Z,96.20
2018-04-23T21:31:45.073Z,96.50
2018-04-23T21:34:13.230Z,96.70
2018-04-23T21:36:41.426Z,96.70
2018-04-23T21:39:09.623Z,96.90
2018-04-23T21:41:38.567Z,96.80
2018-04-23T21:44:06.736Z,96.80
2018-04-23T21:46:34.914Z,96.80
2018-04-23T21:49:03.073Z,96.80
2018-04-23T21:51:31.256Z,96.90
2018-04-23T21:53:59.415Z,97.00
2018-04-23T21:56:27.573Z,97.10
2018-04-23T21:58:55.754Z,97.30
2018-04-23T22:01:23.909Z,97.40
2018-04-23T22:03:52.088Z,97.50
2018-04-23T22:06:20.246Z,98.10
2018-04-23T22:08:48.447Z,97.70
2018-04-23T22:11:16.606Z,98.50
2018-04-23T22:13:44.777Z,98.40
2018-04-23T22:16:13.694Z,98.70
2018-04-23T22:18:41.865Z,98.60
2018-04-23T22:21:10.007Z,98.80
2018-04-23T22:23:38.944Z,99.00
2018-04-23T22:26:07.092Z,99.00
2018-04-23T22:28:35.264Z,99.20
2018-04-23T22:31:03.419Z,99.30
2018-04-23T22:33:32.354Z,99.70
2018-04-23T22:36:00.504Z,99.70
2018-04-23T22:38:28.685Z,99.80
2018-04-23T22:40:56.832Z,99.80
2018-04-23T22:43:25.014Z,99.90
2018-04-23T22:45:53.937Z,99.90
2018-04-23T22:48:22.121Z,99.90
2018-04-23T22:50:50.265Z,99.90
2018-04-23T22:53:18.450Z,99.90
2018-04-23T22:55:46.598Z,99.90
2018-04-23T22:58:15.539Z,99.90
2018-04-23T23:00:43.709Z,99.90
2018-04-23T23:03:11.883Z,99.90
2018-04-23T23:05:40.027Z,99.90
2018-04-23T23:08:08.201Z,99.90
2018-04-23T23:10:36.345Z,99.90
2018-04-23T23:13:04.510Z,99.90
2018-04-23T23:15:32.669Z,99.90
2018-04-23T23:18:00.867Z,99.90
2018-04-23T23:20:29.024Z,99.90
2018-04-23T23:22:57.197Z,99.90
2018-04-23T23:25:25.344Z,99.90
2018-04-23T23:27:53.513Z,99.90
2018-04-23T23:30:21.665Z,99.90
2018-04-23T23:32:49.833Z,99.90
2018-04-23T23:35:17.983Z,99.90
2018-04-23T23:37:46.178Z,99.90
2018-04-23T23:40:14.328Z,99.90
2018-04-23T23:42:42.479Z,99.90
2018-04-23T23:45:10.656Z,99.90
2018-04-23T23:47:38.802Z,99.90
2018-04-23T23:50:06.976Z,99.90
2018-04-23T23:52:35.119Z,99.90
2018-04-23T23:55:03.297Z,99.90
2018-04-23T23:57:31.444Z,99.90
2018-04-23T23:59:59.618Z,99.90
